createdAt,value
2019-02-28T00:00:37.169Z,0
2019-02-28T00:01:55.537Z,0
2019-02-28T00:03:05.476Z,0
2019-02-28T00:04:15.408Z,0
2019-02-28T00:05:25.327Z,0
2019-02-28T00:06:35.258Z,0
2019-02-28T00:07:45.243Z,0
2019-02-28T00:08:58.034Z,0
2019-02-28T00:10:07.968Z,0
2019-02-28T00:11:17.887Z,0
2019-02-28T00:12:27.552Z,0
2019-02-28T00:13:37.567Z,0
2019-02-28T00:14:48.054Z,0
2019-02-28T00:16:00.154Z,0
2019-02-28T00:17:16.039Z,0
2019-02-28T00:18:26.289Z,0
2019-02-28T00:19:36.312Z,0
2019-02-28T00:20:46.233Z,0
2019-02-28T00:21:56.163Z,0
2019-02-28T00:23:06.088Z,0
2019-02-28T00:24:16.006Z,0
2019-02-28T00:25:25.787Z,0
2019-02-28T00:26:35.725Z,0
2019-02-28T00:27:45.686Z,0
2019-02-28T00:28:56.950Z,0
2019-02-28T00:30:13.308Z,0
2019-02-28T00:31:24.862Z,0
2019-02-28T00:32:35.081Z,0
2019-02-28T00:33:44.762Z,0
2019-02-28T00:34:54.679Z,0
2019-02-28T00:36:04.623Z,0
2019-02-28T00:37:14.604Z,0
2019-02-28T00:38:29.167Z,0
2019-02-28T00:39:44.159Z,0
2019-02-28T00:40:54.084Z,0
2019-02-28T00:42:04.005Z,0
2019-02-28T00:43:13.721Z,0
2019-02-28T00:44:23.642Z,0
2019-02-28T00:45:35.982Z,0
2019-02-28T00:46:51.250Z,0
2019-02-28T00:48:01.169Z,0
2019-02-28T00:49:11.198Z,0
2019-02-28T00:50:21.118Z,0
2019-02-28T00:51:32.318Z,0
2019-02-28T00:52:45.572Z,0
2019-02-28T00:53:55.258Z,0
2019-02-28T00:55:05.203Z,0
2019-02-28T00:56:17.499Z,0
2019-02-28T00:57:30.892Z,0
2019-02-28T00:58:40.821Z,0
2019-02-28T00:59:50.773Z,0
2019-02-28T01:01:00.801Z,0
2019-02-28T01:02:10.720Z,0
2019-02-28T01:03:20.643Z,0
2019-02-28T01:04:33.039Z,0
2019-02-28T01:05:46.221Z,0
2019-02-28T01:06:56.240Z,0
2019-02-28T01:08:06.158Z,0
2019-02-28T01:09:16.081Z,0
2019-02-28T01:10:26.000Z,0
2019-02-28T01:11:35.916Z,0
2019-02-28T01:12:45.663Z,0
2019-02-28T01:13:58.035Z,0
2019-02-28T01:15:12.565Z,0
2019-02-28T01:16:26.232Z,0
2019-02-28T01:17:36.912Z,0
2019-02-28T01:18:46.884Z,0
2019-02-28T01:19:56.810Z,0
2019-02-28T01:21:06.728Z,0
2019-02-28T01:22:16.646Z,0
2019-02-28T01:23:29.330Z,0
2019-02-28T01:24:44.226Z,0
2019-02-28T01:25:54.228Z,0
2019-02-28T01:27:04.148Z,0
2019-02-28T01:28:14.073Z,0
2019-02-28T01:29:23.989Z,0
2019-02-28T01:30:33.953Z,0
2019-02-28T01:31:45.041Z,0
2019-02-28T01:32:59.654Z,0
2019-02-28T01:34:09.589Z,0
2019-02-28T01:35:19.515Z,0
2019-02-28T01:36:29.493Z,0
2019-02-28T01:37:39.411Z,0
2019-02-28T01:38:49.326Z,0
2019-02-28T01:40:01.015Z,0
2019-02-28T01:41:18.095Z,0
2019-02-28T01:42:30.299Z,0
2019-02-28T01:43:40.216Z,0
2019-02-28T01:44:50.242Z,0
2019-02-28T01:46:00.177Z,0
2019-02-28T01:47:10.108Z,0
2019-02-28T01:48:22.582Z,0
2019-02-28T01:49:36.392Z,0
2019-02-28T01:50:46.315Z,0
2019-02-28T01:51:56.233Z,0
2019-02-28T01:53:06.156Z,0
2019-02-28T01:54:16.127Z,0
2019-02-28T01:55:26.043Z,0
2019-02-28T01:56:39.070Z,0
2019-02-28T01:57:53.776Z,0
2019-02-28T01:59:03.691Z,0
2019-02-28T02:00:13.625Z,0
2019-02-28T02:01:23.545Z,0
2019-02-28T02:02:33.480Z,0
2019-02-28T02:03:45.663Z,0
2019-02-28T02:04:56.251Z,0
2019-02-28T02:06:06.176Z,0
2019-02-28T02:07:16.111Z,0
2019-02-28T02:08:26.040Z,0
2019-02-28T02:09:36.002Z,0
2019-02-28T02:10:45.938Z,0
2019-02-28T02:11:57.918Z,0
2019-02-28T02:13:10.450Z,0
2019-02-28T02:14:21.148Z,0
2019-02-28T02:15:31.075Z,0
2019-02-28T02:16:40.990Z,0
2019-02-28T02:17:50.729Z,0
2019-02-28T02:19:00.648Z,0
2019-02-28T02:20:10.574Z,0
2019-02-28T02:21:20.492Z,0
2019-02-28T02:22:30.409Z,0
2019-02-28T02:23:40.379Z,0
2019-02-28T02:24:50.296Z,0
2019-02-28T02:26:00.214Z,0
2019-02-28T02:27:10.131Z,0
2019-02-28T02:28:20.061Z,0
2019-02-28T02:29:32.356Z,0
2019-02-28T02:30:52.798Z,0
2019-02-28T02:32:07.071Z,0
2019-02-28T02:33:23.719Z,0
2019-02-28T02:34:37.501Z,0
2019-02-28T02:35:52.001Z,0
2019-02-28T02:37:03.946Z,0
2019-02-28T02:38:14.446Z,0
2019-02-28T02:39:27.285Z,0
2019-02-28T02:40:37.227Z,0
2019-02-28T02:41:47.174Z,0
2019-02-28T02:42:59.399Z,0
2019-02-28T02:44:09.335Z,0
2019-02-28T02:45:19.383Z,0
2019-02-28T02:46:30.831Z,0
2019-02-28T02:47:42.094Z,0
2019-02-28T02:48:52.929Z,0
2019-02-28T02:50:07.195Z,0
2019-02-28T02:51:21.808Z,0
2019-02-28T02:52:37.785Z,0
2019-02-28T02:53:52.498Z,0
2019-02-28T02:55:02.756Z,0
2019-02-28T02:56:14.515Z,0
2019-02-28T02:57:25.363Z,0
2019-02-28T02:58:37.548Z,0
2019-02-28T02:59:49.032Z,0
2019-02-28T03:01:01.059Z,0
2019-02-28T03:02:11.085Z,0
2019-02-28T03:03:21.036Z,0
2019-02-28T03:04:32.847Z,0
2019-02-28T03:05:46.134Z,0
2019-02-28T03:06:56.475Z,0
2019-02-28T03:08:10.453Z,0
2019-02-28T03:09:20.793Z,0
2019-02-28T03:10:30.739Z,0
2019-02-28T03:11:40.670Z,0
2019-02-28T03:12:50.632Z,0
2019-02-28T03:14:00.672Z,0
2019-02-28T03:15:10.617Z,0
2019-02-28T03:16:20.632Z,0
2019-02-28T03:17:30.585Z,0
2019-02-28T03:18:40.517Z,0
2019-02-28T03:19:50.585Z,0
2019-02-28T03:21:00.561Z,0
2019-02-28T03:22:10.481Z,0
2019-02-28T03:23:20.429Z,0
2019-02-28T03:24:30.361Z,0
2019-02-28T03:25:40.340Z,0
2019-02-28T03:26:51.649Z,0
2019-02-28T03:28:05.908Z,0
2019-02-28T03:29:18.398Z,0
2019-02-28T03:30:40.931Z,0
2019-02-28T03:32:04.607Z,0
2019-02-28T03:33:31.228Z,0
2019-02-28T03:34:41.249Z,0
2019-02-28T03:35:53.576Z,0
2019-02-28T03:37:06.924Z,0
2019-02-28T03:38:22.019Z,0
2019-02-28T03:39:35.169Z,0
2019-02-28T03:40:49.695Z,0
2019-02-28T03:42:02.761Z,0
2019-02-28T03:43:16.383Z,0
2019-02-28T03:44:31.291Z,0
2019-02-28T03:45:44.748Z,0
2019-02-28T03:46:57.266Z,0
2019-02-28T03:48:09.265Z,0
2019-02-28T03:49:22.002Z,0
2019-02-28T03:50:32.701Z,0
2019-02-28T03:51:42.682Z,0
2019-02-28T03:52:54.383Z,0
2019-02-28T03:54:06.350Z,0
2019-02-28T03:55:16.321Z,0
2019-02-28T03:56:26.251Z,0
2019-02-28T03:57:39.089Z,0
2019-02-28T03:58:52.562Z,0
2019-02-28T04:00:06.541Z,0
2019-02-28T04:01:19.724Z,0
2019-02-28T04:02:31.882Z,0
2019-02-28T04:03:44.214Z,0
2019-02-28T04:04:59.865Z,0
2019-02-28T04:06:14.087Z,0
2019-02-28T04:07:26.471Z,0
2019-02-28T04:08:40.038Z,0
2019-02-28T04:09:54.700Z,0
2019-02-28T04:11:05.517Z,0
2019-02-28T04:12:18.397Z,0
2019-02-28T04:13:29.857Z,0
2019-02-28T04:14:43.758Z,0
2019-02-28T04:16:17.335Z,0
2019-02-28T04:17:35.022Z,0
2019-02-28T04:18:51.784Z,0
2019-02-28T04:20:08.139Z,0
2019-02-28T04:21:20.295Z,0
2019-02-28T04:22:32.849Z,0
2019-02-28T04:23:46.426Z,0
2019-02-28T04:24:57.399Z,0
2019-02-28T04:26:07.605Z,0
2019-02-28T04:27:17.573Z,0
2019-02-28T04:28:28.677Z,0
2019-02-28T04:29:40.839Z,0
2019-02-28T04:30:53.456Z,0
2019-02-28T04:32:05.310Z,0
2019-02-28T04:33:15.254Z,0
2019-02-28T04:34:25.195Z,0
2019-02-28T04:35:35.122Z,0
2019-02-28T04:36:46.100Z,0
2019-02-28T04:37:56.951Z,0
2019-02-28T04:39:06.908Z,0
2019-02-28T04:40:16.575Z,0
2019-02-28T04:41:26.512Z,0
2019-02-28T04:42:39.156Z,0
2019-02-28T04:43:53.561Z,0
2019-02-28T04:45:03.501Z,0
2019-02-28T04:46:13.167Z,0
2019-02-28T04:47:23.091Z,0
2019-02-28T04:48:33.100Z,0
2019-02-28T04:49:43.032Z,0
2019-02-28T04:50:52.950Z,0
2019-02-28T04:52:02.869Z,0
2019-02-28T04:53:12.814Z,0
2019-02-28T04:54:24.467Z,0
2019-02-28T04:55:39.367Z,0
2019-02-28T04:56:54.574Z,0
2019-02-28T04:58:04.521Z,0
2019-02-28T04:59:14.516Z,0
2019-02-28T05:00:24.438Z,0
2019-02-28T05:01:34.366Z,0
2019-02-28T05:02:44.309Z,0
2019-02-28T05:03:55.163Z,0
2019-02-28T05:05:05.187Z,0
2019-02-28T05:06:15.104Z,0
2019-02-28T05:07:26.230Z,0
2019-02-28T05:08:43.556Z,0
2019-02-28T05:09:57.300Z,0
2019-02-28T05:11:07.217Z,0
2019-02-28T05:12:17.140Z,0
2019-02-28T05:13:27.061Z,0
2019-02-28T05:14:36.992Z,0
2019-02-28T05:15:49.878Z,0
2019-02-28T05:16:59.798Z,0
2019-02-28T05:18:09.727Z,0
2019-02-28T05:19:19.660Z,0
2019-02-28T05:20:29.576Z,0
2019-02-28T05:21:39.545Z,0
2019-02-28T05:22:49.472Z,0
2019-02-28T05:23:59.393Z,0
2019-02-28T05:25:09.317Z,0
2019-02-28T05:26:19.236Z,0
2019-02-28T05:27:37.536Z,0
2019-02-28T05:28:50.764Z,0
2019-02-28T05:30:00.681Z,0
2019-02-28T05:31:10.599Z,0
2019-02-28T05:32:20.618Z,0
2019-02-28T05:33:30.546Z,0
2019-02-28T05:34:40.215Z,0
2019-02-28T05:35:50.134Z,0
2019-02-28T05:37:00.063Z,0
2019-02-28T05:38:10.092Z,0
2019-02-28T05:39:20.007Z,0
2019-02-28T05:40:29.929Z,0
2019-02-28T05:41:41.127Z,0
2019-02-28T05:42:51.047Z,0
2019-02-28T05:44:03.157Z,0
2019-02-28T05:45:17.812Z,0
2019-02-28T05:46:32.891Z,0
2019-02-28T05:47:53.351Z,0
2019-02-28T05:49:03.277Z,0
2019-02-28T05:50:18.017Z,0
2019-02-28T05:51:29.855Z,0
2019-02-28T05:52:42.996Z,0
2019-02-28T05:53:52.923Z,0
2019-02-28T05:55:05.101Z,0
2019-02-28T05:56:15.022Z,0
2019-02-28T05:57:24.941Z,0
2019-02-28T05:58:34.856Z,0
2019-02-28T05:59:44.772Z,0
2019-02-28T06:00:54.791Z,0
2019-02-28T06:02:04.709Z,0
2019-02-28T06:03:14.633Z,0
2019-02-28T06:04:24.568Z,0
2019-02-28T06:05:34.501Z,0
2019-02-28T06:06:44.472Z,0
2019-02-28T06:07:54.389Z,0
2019-02-28T06:09:04.310Z,5
2019-02-28T06:10:14.256Z,5
2019-02-28T06:11:24.708Z,5
2019-02-28T06:12:34.675Z,5
2019-02-28T06:13:49.573Z,5
2019-02-28T06:15:07.055Z,5
2019-02-28T06:16:21.025Z,10
2019-02-28T06:17:31.676Z,10
2019-02-28T06:18:43.064Z,10
2019-02-28T06:19:53.907Z,10
2019-02-28T06:21:03.830Z,15
2019-02-28T06:22:13.749Z,15
2019-02-28T06:23:23.767Z,15
2019-02-28T06:24:33.714Z,15
2019-02-28T06:25:43.636Z,20
2019-02-28T06:26:53.564Z,20
2019-02-28T06:28:03.486Z,20
2019-02-28T06:29:15.236Z,20
2019-02-28T06:30:25.165Z,25
2019-02-28T06:31:36.886Z,25
2019-02-28T06:32:46.832Z,30
2019-02-28T06:33:57.144Z,30
2019-02-28T06:35:07.142Z,30
2019-02-28T06:36:17.091Z,35
2019-02-28T06:37:28.573Z,35
2019-02-28T06:38:38.243Z,40
2019-02-28T06:39:48.161Z,40
2019-02-28T06:40:58.193Z,45
2019-02-28T06:42:08.117Z,45
2019-02-28T06:43:21.843Z,45
2019-02-28T06:44:36.322Z,50
2019-02-28T06:45:47.306Z,50
2019-02-28T06:46:57.323Z,55
2019-02-28T06:48:09.044Z,55
2019-02-28T06:49:19.006Z,60
2019-02-28T06:50:28.928Z,60
2019-02-28T06:51:38.857Z,65
2019-02-28T06:52:48.848Z,65
2019-02-28T06:53:58.773Z,65
2019-02-28T06:55:08.693Z,65
2019-02-28T06:56:22.432Z,65
2019-02-28T06:57:37.889Z,70
2019-02-28T06:58:47.876Z,70
2019-02-28T06:59:57.794Z,70
2019-02-28T07:01:07.719Z,75
2019-02-28T07:02:18.530Z,75
2019-02-28T07:03:28.476Z,80
2019-02-28T07:04:38.629Z,80
2019-02-28T07:05:48.558Z,85
2019-02-28T07:06:58.486Z,85
2019-02-28T07:08:08.407Z,85
2019-02-28T07:09:18.319Z,90
2019-02-28T07:10:28.355Z,90
2019-02-28T07:11:38.283Z,95
2019-02-28T07:12:48.214Z,95
2019-02-28T07:13:58.149Z,95
2019-02-28T07:15:08.067Z,100
2019-02-28T07:16:18.104Z,100
2019-02-28T07:17:28.059Z,100
2019-02-28T07:18:37.975Z,105
2019-02-28T07:19:47.897Z,105
2019-02-28T07:20:57.856Z,110
2019-02-28T07:22:07.850Z,110
2019-02-28T07:23:17.772Z,110
2019-02-28T07:24:27.734Z,115
2019-02-28T07:25:37.955Z,115
2019-02-28T07:26:48.307Z,115
2019-02-28T07:28:01.484Z,120
2019-02-28T07:29:15.949Z,120
2019-02-28T07:30:28.363Z,120
2019-02-28T07:31:38.373Z,125
2019-02-28T07:32:48.324Z,125
2019-02-28T07:33:58.603Z,125
2019-02-28T07:35:08.617Z,130
2019-02-28T07:36:20.102Z,130
2019-02-28T07:37:30.018Z,130
2019-02-28T07:38:39.938Z,135
2019-02-28T07:39:50.714Z,135
2019-02-28T07:41:00.635Z,135
2019-02-28T07:42:12.497Z,135
2019-02-28T07:43:22.813Z,140
2019-02-28T07:44:32.805Z,140
2019-02-28T07:45:43.778Z,140
2019-02-28T07:46:53.699Z,145
2019-02-28T07:48:03.639Z,145
2019-02-28T07:49:13.561Z,145
2019-02-28T07:50:23.511Z,145
2019-02-28T07:51:36.012Z,150
2019-02-28T07:52:45.943Z,150
2019-02-28T07:53:55.869Z,150
2019-02-28T07:55:05.787Z,155
2019-02-28T07:56:17.275Z,155
2019-02-28T07:57:29.680Z,155
2019-02-28T07:58:42.651Z,155
2019-02-28T07:59:52.586Z,160
2019-02-28T08:01:03.297Z,160
2019-02-28T08:02:13.669Z,160
2019-02-28T08:03:23.715Z,160
2019-02-28T08:04:33.657Z,165
2019-02-28T08:05:43.397Z,165
2019-02-28T08:06:54.796Z,165
2019-02-28T08:08:04.868Z,165
2019-02-28T08:09:15.088Z,165
2019-02-28T08:10:26.166Z,165
2019-02-28T08:11:36.098Z,165
2019-02-28T08:12:46.024Z,165
2019-02-28T08:13:57.678Z,170
2019-02-28T08:15:07.621Z,170
2019-02-28T08:16:17.300Z,170
2019-02-28T08:17:27.260Z,170
2019-02-28T08:18:38.859Z,175
2019-02-28T08:19:48.786Z,175
2019-02-28T08:20:58.722Z,175
2019-02-28T08:22:08.649Z,175
2019-02-28T08:23:19.946Z,180
2019-02-28T08:24:31.406Z,180
2019-02-28T08:25:45.255Z,180
2019-02-28T08:27:00.399Z,180
2019-02-28T08:28:10.449Z,185
2019-02-28T08:29:21.315Z,185
2019-02-28T08:30:31.301Z,185
2019-02-28T08:31:42.392Z,185
2019-02-28T08:32:56.372Z,190
2019-02-28T08:34:06.292Z,190
2019-02-28T08:35:16.223Z,190
2019-02-28T08:36:26.150Z,190
2019-02-28T08:37:36.088Z,190
2019-02-28T08:38:48.442Z,195
2019-02-28T08:39:58.372Z,195
2019-02-28T08:41:08.950Z,195
2019-02-28T08:42:18.877Z,195
2019-02-28T08:43:36.536Z,200
2019-02-28T08:44:46.458Z,200
2019-02-28T08:45:56.392Z,200
2019-02-28T08:47:06.383Z,200
2019-02-28T08:48:17.599Z,200
2019-02-28T08:49:27.576Z,205
2019-02-28T08:50:37.565Z,205
2019-02-28T08:51:48.092Z,205
2019-02-28T08:52:58.024Z,205
2019-02-28T08:54:08.559Z,210
2019-02-28T08:55:27.851Z,210
2019-02-28T08:56:39.454Z,210
2019-02-28T08:58:06.916Z,210
2019-02-28T08:59:27.568Z,215
2019-02-28T09:00:44.840Z,215
2019-02-28T09:01:54.870Z,215
2019-02-28T09:03:05.701Z,215
2019-02-28T09:04:15.626Z,220
2019-02-28T09:05:32.530Z,220
2019-02-28T09:06:47.800Z,220
2019-02-28T09:08:03.046Z,230
2019-02-28T09:09:14.553Z,225
2019-02-28T09:10:24.641Z,230
2019-02-28T09:11:34.568Z,225
2019-02-28T09:12:44.494Z,230
2019-02-28T09:13:54.418Z,230
2019-02-28T09:15:05.710Z,230
2019-02-28T09:16:16.302Z,235
2019-02-28T09:17:28.884Z,235
2019-02-28T09:18:38.805Z,235
2019-02-28T09:19:48.775Z,235
2019-02-28T09:20:58.825Z,240
2019-02-28T09:22:08.860Z,240
2019-02-28T09:23:18.865Z,240
2019-02-28T09:24:30.805Z,245
2019-02-28T09:25:40.741Z,245
2019-02-28T09:26:51.036Z,245
2019-02-28T09:28:00.961Z,245
2019-02-28T09:29:10.886Z,245
2019-02-28T09:30:20.906Z,245
2019-02-28T09:31:30.830Z,245
2019-02-28T09:32:40.750Z,250
2019-02-28T09:33:50.688Z,250
2019-02-28T09:35:02.371Z,250
2019-02-28T09:36:12.704Z,250
2019-02-28T09:37:22.629Z,250
2019-02-28T09:38:32.553Z,250
2019-02-28T09:39:42.486Z,250
2019-02-28T09:40:52.413Z,250
2019-02-28T09:42:02.390Z,255
2019-02-28T09:43:12.315Z,255
2019-02-28T09:44:22.259Z,255
2019-02-28T09:45:32.190Z,255
2019-02-28T09:46:41.856Z,255
2019-02-28T09:47:51.828Z,255
2019-02-28T09:49:02.437Z,255
2019-02-28T09:50:12.363Z,255
2019-02-28T09:51:22.291Z,260
2019-02-28T09:52:32.386Z,260
2019-02-28T09:53:42.372Z,260
2019-02-28T09:54:52.295Z,260
2019-02-28T09:56:02.230Z,260
2019-02-28T09:57:12.170Z,260
2019-02-28T09:58:22.105Z,260
2019-02-28T09:59:37.263Z,260
2019-02-28T10:00:55.208Z,260
2019-02-28T10:02:15.434Z,265
2019-02-28T10:03:28.287Z,265
2019-02-28T10:04:40.730Z,265
2019-02-28T10:05:52.713Z,265
2019-02-28T10:07:04.124Z,265
2019-02-28T10:08:14.355Z,265
2019-02-28T10:09:27.149Z,265
2019-02-28T10:10:37.087Z,265
2019-02-28T10:11:47.811Z,270
2019-02-28T10:12:59.335Z,270
2019-02-28T10:14:09.258Z,270
2019-02-28T10:15:19.205Z,270
2019-02-28T10:16:29.237Z,270
2019-02-28T10:17:39.279Z,270
2019-02-28T10:18:49.237Z,270
2019-02-28T10:20:02.627Z,270
2019-02-28T10:21:12.551Z,270
2019-02-28T10:22:23.190Z,270
2019-02-28T10:23:33.108Z,270
2019-02-28T10:24:43.029Z,275
2019-02-28T10:25:53.293Z,275
2019-02-28T10:27:03.544Z,275
2019-02-28T10:28:13.648Z,280
2019-02-28T10:29:23.622Z,275
2019-02-28T10:30:40.879Z,275
2019-02-28T10:31:50.799Z,275
2019-02-28T10:33:00.722Z,280
2019-02-28T10:34:10.609Z,275
2019-02-28T10:35:21.003Z,280
2019-02-28T10:36:30.944Z,280
2019-02-28T10:37:40.874Z,280
2019-02-28T10:38:50.803Z,280
2019-02-28T10:40:00.774Z,280
2019-02-28T10:41:10.715Z,280
2019-02-28T10:42:20.642Z,280
2019-02-28T10:43:30.320Z,280
2019-02-28T10:44:41.178Z,280
2019-02-28T10:45:53.281Z,280
2019-02-28T10:47:04.257Z,280
2019-02-28T10:48:14.184Z,280
2019-02-28T10:49:28.744Z,285
2019-02-28T10:50:42.871Z,285
2019-02-28T10:51:58.409Z,285
2019-02-28T10:53:13.864Z,285
2019-02-28T10:54:24.761Z,285
2019-02-28T10:55:34.694Z,285
2019-02-28T10:56:46.267Z,285
2019-02-28T10:57:56.191Z,285
2019-02-28T10:59:06.118Z,285
2019-02-28T11:00:15.800Z,285
2019-02-28T11:01:25.722Z,290
2019-02-28T11:02:35.751Z,290
2019-02-28T11:03:45.682Z,290
2019-02-28T11:04:55.605Z,290
2019-02-28T11:06:05.542Z,290
2019-02-28T11:07:16.787Z,360
2019-02-28T11:08:28.754Z,540
2019-02-28T11:09:38.422Z,560
2019-02-28T11:10:48.356Z,585
2019-02-28T11:11:58.291Z,610
2019-02-28T11:13:08.247Z,590
2019-02-28T11:14:18.451Z,580
2019-02-28T11:15:28.374Z,570
2019-02-28T11:16:38.579Z,565
2019-02-28T11:17:49.473Z,555
2019-02-28T11:18:59.398Z,555
2019-02-28T11:20:09.324Z,555
2019-02-28T11:21:19.252Z,555
2019-02-28T11:22:29.176Z,555
2019-02-28T11:23:39.113Z,560
2019-02-28T11:24:49.045Z,565
2019-02-28T11:26:00.198Z,565
2019-02-28T11:27:10.126Z,570
2019-02-28T11:28:20.080Z,570
2019-02-28T11:29:30.023Z,580
2019-02-28T11:30:46.822Z,580
2019-02-28T11:32:01.482Z,585
2019-02-28T11:33:14.169Z,585
2019-02-28T11:34:25.992Z,595
2019-02-28T11:35:35.925Z,605
2019-02-28T11:36:47.217Z,610
2019-02-28T11:37:57.013Z,610
2019-02-28T11:39:06.943Z,610
2019-02-28T11:40:18.728Z,615
2019-02-28T11:41:29.190Z,625
2019-02-28T11:42:40.760Z,685
2019-02-28T11:43:50.816Z,710
2019-02-28T11:45:01.164Z,690
2019-02-28T11:46:12.680Z,675
2019-02-28T11:47:23.314Z,670
2019-02-28T11:48:33.319Z,680
2019-02-28T11:49:43.351Z,680
2019-02-28T11:50:54.568Z,675
2019-02-28T11:52:04.495Z,670
2019-02-28T11:53:15.563Z,680
2019-02-28T11:54:25.495Z,680
2019-02-28T11:55:36.787Z,680
2019-02-28T11:56:46.719Z,680
2019-02-28T11:57:56.648Z,690
2019-02-28T11:59:06.589Z,695
2019-02-28T12:00:18.262Z,705
2019-02-28T12:01:28.286Z,700
2019-02-28T12:02:39.017Z,710
2019-02-28T12:03:49.240Z,710
2019-02-28T12:04:59.242Z,725
2019-02-28T12:06:11.753Z,725
2019-02-28T12:07:23.158Z,725
2019-02-28T12:08:34.986Z,725
2019-02-28T12:09:46.994Z,725
2019-02-28T12:11:01.820Z,735
2019-02-28T12:12:18.613Z,730
2019-02-28T12:13:31.722Z,735
2019-02-28T12:14:43.787Z,735
2019-02-28T12:15:55.829Z,740
2019-02-28T12:17:07.814Z,745
2019-02-28T12:18:19.951Z,750
2019-02-28T12:19:30.893Z,755
2019-02-28T12:20:40.858Z,760
2019-02-28T12:21:50.813Z,765
2019-02-28T12:23:00.751Z,780
2019-02-28T12:24:10.736Z,775
2019-02-28T12:25:20.669Z,790
2019-02-28T12:26:30.674Z,800
2019-02-28T12:27:40.617Z,805
2019-02-28T12:28:50.569Z,815
2019-02-28T12:30:00.610Z,820
2019-02-28T12:31:10.694Z,830
2019-02-28T12:32:20.827Z,840
2019-02-28T12:33:32.950Z,855
2019-02-28T12:34:42.886Z,860
2019-02-28T12:35:54.702Z,860
2019-02-28T12:37:04.811Z,865
2019-02-28T12:38:14.742Z,895
2019-02-28T12:39:26.125Z,910
2019-02-28T12:40:36.091Z,935
2019-02-28T12:41:47.366Z,975
2019-02-28T12:42:57.076Z,1030
2019-02-28T12:44:06.774Z,1080
2019-02-28T12:45:16.727Z,1185
2019-02-28T12:46:26.668Z,1250
2019-02-28T12:47:38.573Z,1435
2019-02-28T12:48:52.761Z,1845
2019-02-28T12:50:06.452Z,2465
2019-02-28T12:51:16.439Z,2180
2019-02-28T12:52:26.401Z,1825
2019-02-28T12:53:37.421Z,1720
2019-02-28T12:54:47.366Z,1680
2019-02-28T12:55:57.308Z,1730
2019-02-28T12:57:07.244Z,1790
2019-02-28T12:58:17.191Z,1775
2019-02-28T12:59:27.131Z,1590
2019-02-28T13:00:37.083Z,1700
2019-02-28T13:01:47.042Z,1680
2019-02-28T13:02:56.984Z,1590
2019-02-28T13:04:10.255Z,1740
2019-02-28T13:05:25.336Z,1740
2019-02-28T13:06:35.333Z,1665
2019-02-28T13:07:45.292Z,1520
2019-02-28T13:08:55.946Z,1370
2019-02-28T13:10:06.504Z,1315
2019-02-28T13:11:16.960Z,1390
2019-02-28T13:12:26.907Z,1465
2019-02-28T13:13:38.650Z,1475
2019-02-28T13:14:51.230Z,1525
2019-02-28T13:16:01.179Z,1675
2019-02-28T13:17:11.172Z,1775
2019-02-28T13:18:21.134Z,1555
2019-02-28T13:19:31.153Z,1305
2019-02-28T13:20:43.737Z,1070
2019-02-28T13:21:57.047Z,780
2019-02-28T13:23:10.188Z,535
2019-02-28T13:24:19.770Z,460
2019-02-28T13:25:33.889Z,555
2019-02-28T13:26:43.916Z,560
2019-02-28T13:27:55.138Z,645
2019-02-28T13:29:09.990Z,950
2019-02-28T13:30:21.518Z,970
2019-02-28T13:31:37.841Z,890
2019-02-28T13:32:48.707Z,910
2019-02-28T13:34:05.941Z,570
2019-02-28T13:35:18.218Z,440
2019-02-28T13:36:31.396Z,575
2019-02-28T13:37:49.597Z,515
2019-02-28T13:39:05.307Z,455
2019-02-28T13:40:18.872Z,395
2019-02-28T13:41:35.478Z,385
2019-02-28T13:42:50.150Z,600
2019-02-28T13:44:05.002Z,740
2019-02-28T13:45:29.895Z,845
2019-02-28T13:46:43.591Z,1015
2019-02-28T13:47:56.283Z,830
2019-02-28T13:49:08.419Z,725
2019-02-28T13:50:21.995Z,690
2019-02-28T13:51:41.942Z,480
2019-02-28T13:52:54.906Z,685
2019-02-28T13:54:10.971Z,775
2019-02-28T13:55:28.008Z,870
2019-02-28T13:56:41.256Z,805
2019-02-28T13:57:54.725Z,485
2019-02-28T13:59:07.880Z,575
2019-02-28T14:00:18.619Z,740
2019-02-28T14:01:29.857Z,670
2019-02-28T14:02:43.335Z,680
2019-02-28T14:03:55.626Z,680
2019-02-28T14:05:11.906Z,670
2019-02-28T14:06:29.180Z,910
2019-02-28T14:07:40.989Z,795
2019-02-28T14:08:54.617Z,465
2019-02-28T14:10:07.873Z,280
2019-02-28T14:11:20.475Z,380
2019-02-28T14:12:33.657Z,490
2019-02-28T14:13:44.501Z,495
2019-02-28T14:14:54.483Z,475
2019-02-28T14:16:04.454Z,340
2019-02-28T14:17:14.487Z,635
2019-02-28T14:18:24.432Z,775
2019-02-28T14:19:34.112Z,635
2019-02-28T14:20:44.114Z,705
2019-02-28T14:21:54.044Z,795
2019-02-28T14:23:04.070Z,775
2019-02-28T14:24:14.006Z,715
2019-02-28T14:25:23.936Z,660
2019-02-28T14:26:46.499Z,530
2019-02-28T14:28:02.744Z,285
2019-02-28T14:29:17.336Z,280
2019-02-28T14:30:30.062Z,420
2019-02-28T14:31:43.158Z,655
2019-02-28T14:32:55.098Z,835
2019-02-28T14:34:05.128Z,920
2019-02-28T14:35:15.048Z,660
2019-02-28T14:36:24.982Z,350
2019-02-28T14:37:34.914Z,380
2019-02-28T14:38:44.844Z,410
2019-02-28T14:39:54.827Z,380
2019-02-28T14:41:06.598Z,325
2019-02-28T14:42:17.379Z,365
2019-02-28T14:43:29.286Z,375
2019-02-28T14:44:42.038Z,330
2019-02-28T14:45:53.431Z,345
2019-02-28T14:47:03.672Z,345
2019-02-28T14:48:14.718Z,320
2019-02-28T14:49:24.398Z,370
2019-02-28T14:50:34.348Z,350
2019-02-28T14:51:44.374Z,335
2019-02-28T14:52:54.301Z,290
2019-02-28T14:54:04.230Z,295
2019-02-28T14:55:14.176Z,260
2019-02-28T14:56:24.107Z,230
2019-02-28T14:57:34.128Z,235
2019-02-28T14:58:44.049Z,250
2019-02-28T14:59:53.974Z,270
2019-02-28T15:01:03.903Z,290
2019-02-28T15:02:13.824Z,310
2019-02-28T15:03:24.591Z,315
2019-02-28T15:04:34.521Z,385
2019-02-28T15:05:44.456Z,405
2019-02-28T15:06:54.546Z,320
2019-02-28T15:08:04.532Z,285
2019-02-28T15:09:14.503Z,430
2019-02-28T15:10:24.430Z,460
2019-02-28T15:11:34.353Z,710
2019-02-28T15:12:44.277Z,640
2019-02-28T15:13:55.522Z,450
2019-02-28T15:15:05.499Z,480
2019-02-28T15:16:15.424Z,455
2019-02-28T15:17:25.353Z,490
2019-02-28T15:18:35.282Z,390
2019-02-28T15:19:45.209Z,245
2019-02-28T15:20:55.182Z,235
2019-02-28T15:22:05.112Z,275
2019-02-28T15:23:15.043Z,290
2019-02-28T15:24:24.986Z,315
2019-02-28T15:25:34.946Z,350
2019-02-28T15:26:44.921Z,375
2019-02-28T15:27:54.846Z,380
2019-02-28T15:29:04.777Z,335
2019-02-28T15:30:15.749Z,360
2019-02-28T15:31:25.693Z,355
2019-02-28T15:32:35.729Z,375
2019-02-28T15:33:45.649Z,440
2019-02-28T15:34:55.582Z,515
2019-02-28T15:36:05.252Z,585
2019-02-28T15:37:15.180Z,610
2019-02-28T15:38:25.156Z,615
2019-02-28T15:39:35.083Z,555
2019-02-28T15:40:45.452Z,545
2019-02-28T15:41:55.396Z,565
2019-02-28T15:43:05.335Z,545
2019-02-28T15:44:15.318Z,490
2019-02-28T15:45:26.812Z,490
2019-02-28T15:46:38.398Z,480
2019-02-28T15:47:48.328Z,375
2019-02-28T15:48:58.267Z,310
2019-02-28T15:50:08.244Z,300
2019-02-28T15:51:18.176Z,270
2019-02-28T15:52:28.138Z,225
2019-02-28T15:53:38.080Z,195
2019-02-28T15:54:48.008Z,190
2019-02-28T15:55:57.980Z,170
2019-02-28T15:57:07.913Z,165
2019-02-28T15:58:19.174Z,170
2019-02-28T15:59:29.158Z,195
2019-02-28T16:00:39.122Z,210
2019-02-28T16:01:49.157Z,240
2019-02-28T16:02:59.100Z,240
2019-02-28T16:04:09.032Z,260
2019-02-28T16:05:19.016Z,255
2019-02-28T16:06:30.099Z,205
2019-02-28T16:07:42.961Z,180
2019-02-28T16:08:56.624Z,125
2019-02-28T16:10:07.450Z,90
2019-02-28T16:11:17.382Z,75
2019-02-28T16:12:27.316Z,65
2019-02-28T16:13:37.384Z,55
2019-02-28T16:14:47.313Z,50
2019-02-28T16:15:59.594Z,50
2019-02-28T16:17:12.914Z,50
2019-02-28T16:18:22.587Z,50
2019-02-28T16:19:32.592Z,45
2019-02-28T16:20:43.160Z,40
2019-02-28T16:21:53.090Z,40
2019-02-28T16:23:03.014Z,40
2019-02-28T16:24:14.714Z,35
2019-02-28T16:25:25.326Z,35
2019-02-28T16:26:35.256Z,30
2019-02-28T16:27:45.193Z,30
2019-02-28T16:28:55.146Z,30
2019-02-28T16:30:06.245Z,25
2019-02-28T16:31:18.710Z,25
2019-02-28T16:32:29.985Z,25
2019-02-28T16:33:39.978Z,20
2019-02-28T16:34:52.648Z,20
2019-02-28T16:36:02.575Z,20
2019-02-28T16:37:12.607Z,15
2019-02-28T16:38:22.531Z,15
2019-02-28T16:39:32.452Z,15
2019-02-28T16:40:42.638Z,15
2019-02-28T16:41:52.613Z,10
2019-02-28T16:43:02.689Z,10
2019-02-28T16:44:12.615Z,10
2019-02-28T16:45:22.552Z,10
2019-02-28T16:46:32.670Z,10
2019-02-28T16:47:42.599Z,5
2019-02-28T16:48:52.809Z,5